createdAt,value
2022-07-29T00:02:00.204Z,2.30
2022-07-29T00:04:32.210Z,2.20
2022-07-29T00:07:04.209Z,2.40
2022-07-29T00:09:43.037Z,2.20
2022-07-29T00:12:27.052Z,2.20
2022-07-29T00:14:59.425Z,2.50
2022-07-29T00:17:31.087Z,2.30
2022-07-29T00:20:02.868Z,2.20
2022-07-29T00:22:34.670Z,2.30
2022-07-29T00:25:07.382Z,2.50
2022-07-29T00:27:39.504Z,2.50
2022-07-29T00:30:14.298Z,2.20
2022-07-29T00:32:45.980Z,2.50
2022-07-29T00:35:35.497Z,2.40
2022-07-29T00:38:07.185Z,2.20
2022-07-29T00:40:39.049Z,2.40
2022-07-29T00:43:15.894Z,2.20
2022-07-29T00:45:47.652Z,2.70
2022-07-29T00:48:19.428Z,2.20
2022-07-29T00:50:52.983Z,2.40
2022-07-29T00:53:25.683Z,2.70
2022-07-29T00:55:59.537Z,3.00
2022-07-29T00:58:31.395Z,2.80
2022-07-29T01:01:03.184Z,2.80
2022-07-29T01:03:34.938Z,2.20
2022-07-29T01:06:07.695Z,2.60
2022-07-29T01:08:39.838Z,2.20
2022-07-29T01:11:12.150Z,2.90
2022-07-29T01:13:44.253Z,2.50
2022-07-29T01:16:23.268Z,2.70
2022-07-29T01:19:02.989Z,2.60
2022-07-29T01:21:57.435Z,2.60
2022-07-29T01:24:42.301Z,2.80
2022-07-29T01:27:32.629Z,2.90
2022-07-29T01:30:05.560Z,2.20
2022-07-29T01:32:41.252Z,2.80
2022-07-29T01:35:21.308Z,2.80
2022-07-29T01:37:58.595Z,2.80
2022-07-29T01:40:36.586Z,2.60
2022-07-29T01:43:14.978Z,2.90
2022-07-29T01:45:50.036Z,2.90
2022-07-29T01:48:25.391Z,2.40
2022-07-29T01:51:04.030Z,3.00
2022-07-29T01:53:40.953Z,3.20
2022-07-29T01:56:14.481Z,3.20
2022-07-29T01:58:47.834Z,2.60
2022-07-29T02:01:20.505Z,3.00
2022-07-29T02:03:53.681Z,3.10
2022-07-29T02:06:27.670Z,2.90
2022-07-29T02:09:00.785Z,3.30
2022-07-29T02:11:35.452Z,3.00
2022-07-29T02:14:09.427Z,3.10
2022-07-29T02:16:42.994Z,3.00
2022-07-29T02:19:16.876Z,2.80
2022-07-29T02:21:49.833Z,2.70
2022-07-29T02:24:23.109Z,2.90
2022-07-29T02:26:57.582Z,2.80
2022-07-29T02:29:31.539Z,2.90
2022-07-29T02:32:05.502Z,2.60
2022-07-29T02:34:38.070Z,3.10
2022-07-29T02:37:12.531Z,2.90
2022-07-29T02:39:46.967Z,3.30
2022-07-29T02:42:19.809Z,3.00
2022-07-29T02:44:52.094Z,2.80
2022-07-29T02:47:31.129Z,3.50
2022-07-29T02:50:19.920Z,3.00
2022-07-29T02:52:58.758Z,3.00
2022-07-29T02:55:36.078Z,3.00
2022-07-29T02:58:14.963Z,2.80
2022-07-29T03:00:49.102Z,3.30
2022-07-29T03:03:23.458Z,3.10
2022-07-29T03:05:57.212Z,3.00
2022-07-29T03:08:30.689Z,3.40
2022-07-29T03:11:03.779Z,3.50
2022-07-29T03:13:37.182Z,3.00
2022-07-29T03:16:14.090Z,3.40
2022-07-29T03:18:45.967Z,3.40
2022-07-29T03:21:17.777Z,2.90
2022-07-29T03:23:49.370Z,3.10
2022-07-29T03:26:21.168Z,3.10
2022-07-29T03:28:52.876Z,3.20
2022-07-29T03:31:25.610Z,3.10
2022-07-29T03:33:58.597Z,3.10
2022-07-29T03:36:30.561Z,4.00
2022-07-29T03:39:04.240Z,3.60
2022-07-29T03:41:37.561Z,3.30
2022-07-29T03:44:09.826Z,3.50
2022-07-29T03:46:45.392Z,3.70
2022-07-29T03:49:19.256Z,3.60
2022-07-29T03:51:51.459Z,3.20
2022-07-29T03:54:23.282Z,3.90
2022-07-29T03:56:56.810Z,3.40
2022-07-29T03:59:29.797Z,3.40
2022-07-29T04:02:35.275Z,4.10
2022-07-29T04:05:13.575Z,4.50
2022-07-29T04:07:47.729Z,3.50
2022-07-29T04:10:28.308Z,3.40
2022-07-29T04:13:03.804Z,3.50
2022-07-29T04:15:35.649Z,3.50
2022-07-29T04:18:07.560Z,3.70
2022-07-29T04:20:39.408Z,3.20
2022-07-29T04:23:11.381Z,3.10
2022-07-29T04:25:43.760Z,3.20
2022-07-29T04:28:15.967Z,2.90
2022-07-29T04:30:48.853Z,2.80
2022-07-29T04:33:20.675Z,3.10
2022-07-29T04:35:55.034Z,2.80
2022-07-29T04:38:27.420Z,3.10
2022-07-29T04:40:58.987Z,2.60
2022-07-29T04:43:30.958Z,2.80
2022-07-29T04:46:10.242Z,3.10
2022-07-29T04:48:42.289Z,2.80
2022-07-29T04:51:14.118Z,2.80
2022-07-29T04:53:46.798Z,2.80
2022-07-29T04:56:18.954Z,3.00
2022-07-29T04:58:50.832Z,2.90
2022-07-29T05:01:22.649Z,2.50
2022-07-29T05:03:59.900Z,2.60
2022-07-29T05:06:32.150Z,2.70
2022-07-29T05:09:04.112Z,2.70
2022-07-29T05:11:35.829Z,3.10
2022-07-29T05:14:07.485Z,2.60
2022-07-29T05:16:40.260Z,2.40
2022-07-29T05:19:14.346Z,2.60
2022-07-29T05:21:47.962Z,2.70
2022-07-29T05:24:20.185Z,2.50
2022-07-29T05:26:51.976Z,2.50
2022-07-29T05:29:42.776Z,2.90
2022-07-29T05:32:15.289Z,2.80
2022-07-29T05:34:50.306Z,2.80
2022-07-29T05:37:23.867Z,3.30
2022-07-29T05:39:56.552Z,2.90
2022-07-29T05:42:30.232Z,2.50
2022-07-29T05:45:02.176Z,2.60
2022-07-29T05:47:33.923Z,2.90
2022-07-29T05:50:07.673Z,2.40
2022-07-29T05:52:39.998Z,2.60
2022-07-29T05:55:14.525Z,2.20
2022-07-29T05:57:46.697Z,2.20
2022-07-29T06:00:19.945Z,2.50
2022-07-29T06:02:51.625Z,2.90
2022-07-29T06:05:23.353Z,2.80
2022-07-29T06:07:55.238Z,2.30
2022-07-29T06:10:27.988Z,2.20
2022-07-29T06:12:59.696Z,2.60
2022-07-29T06:15:31.468Z,2.50
2022-07-29T06:18:03.269Z,2.60
2022-07-29T06:20:35.345Z,4.90
2022-07-29T06:23:07.913Z,2.50
2022-07-29T06:25:40.577Z,2.30
2022-07-29T06:28:12.556Z,2.10
2022-07-29T06:30:44.390Z,2.10
2022-07-29T06:33:21.166Z,2.70
2022-07-29T06:35:53.656Z,2.70
2022-07-29T06:38:30.794Z,2.40
2022-07-29T06:41:05.010Z,2.10
2022-07-29T06:43:50.302Z,2.40
2022-07-29T06:46:25.561Z,1.90
2022-07-29T06:48:57.444Z,2.00
2022-07-29T06:51:29.763Z,2.10
2022-07-29T06:54:03.212Z,1.90
2022-07-29T06:56:44.654Z,1.80
2022-07-29T06:59:16.642Z,1.80
2022-07-29T07:01:48.287Z,2.10
2022-07-29T07:04:20.673Z,2.00
2022-07-29T07:06:52.683Z,2.30
2022-07-29T07:09:24.431Z,1.80
2022-07-29T07:11:56.065Z,1.90
2022-07-29T07:14:29.094Z,1.70
2022-07-29T07:17:01.689Z,1.60
2022-07-29T07:19:33.567Z,2.00
2022-07-29T07:22:05.422Z,1.80
2022-07-29T07:24:37.115Z,2.80
2022-07-29T07:27:08.723Z,1.50
2022-07-29T07:29:42.174Z,1.40
2022-07-29T07:32:17.329Z,1.90
2022-07-29T07:34:48.955Z,1.80
2022-07-29T07:37:21.615Z,1.70
2022-07-29T07:39:53.410Z,1.90
2022-07-29T07:42:25.509Z,2.20
2022-07-29T07:45:12.643Z,2.00
2022-07-29T07:47:45.492Z,1.70
2022-07-29T07:50:19.295Z,1.80
2022-07-29T07:52:53.230Z,1.70
2022-07-29T07:55:25.531Z,2.20
2022-07-29T07:57:57.573Z,1.60
2022-07-29T08:00:29.464Z,2.10
2022-07-29T08:03:04.747Z,1.80
2022-07-29T08:05:48.603Z,1.40
2022-07-29T08:08:20.396Z,2.30
2022-07-29T08:10:54.902Z,2.10
2022-07-29T08:13:29.402Z,2.10
2022-07-29T08:16:02.815Z,2.30
2022-07-29T08:18:34.874Z,2.10
2022-07-29T08:21:07.183Z,1.70
2022-07-29T08:23:46.533Z,2.20
2022-07-29T08:26:21.906Z,1.60
2022-07-29T08:28:53.573Z,1.60
2022-07-29T08:31:25.437Z,2.50
2022-07-29T08:34:00.863Z,1.80
2022-07-29T08:36:32.670Z,1.60
2022-07-29T08:39:05.057Z,1.80
2022-07-29T08:41:37.298Z,1.60
2022-07-29T08:44:09.262Z,1.80
2022-07-29T08:46:42.295Z,1.40
2022-07-29T08:49:14.055Z,1.90
2022-07-29T08:51:49.370Z,1.50
2022-07-29T08:54:23.552Z,1.30
2022-07-29T08:56:56.390Z,1.50
2022-07-29T08:59:31.315Z,1.50
2022-07-29T09:02:03.789Z,1.30
2022-07-29T09:04:38.144Z,1.40
2022-07-29T09:07:11.127Z,1.40
2022-07-29T09:09:43.800Z,1.60
2022-07-29T09:12:28.809Z,1.40
2022-07-29T09:15:01.725Z,1.70
2022-07-29T09:17:47.386Z,1.50
2022-07-29T09:20:23.391Z,1.30
2022-07-29T09:22:55.402Z,1.40
2022-07-29T09:25:40.411Z,1.20
2022-07-29T09:28:13.453Z,1.50
2022-07-29T09:30:56.256Z,1.70
2022-07-29T09:33:36.768Z,1.50
2022-07-29T09:36:12.512Z,1.50
2022-07-29T09:38:44.215Z,1.40
2022-07-29T09:41:16.015Z,1.10
2022-07-29T09:43:59.184Z,1.40
2022-07-29T09:46:31.078Z,1.10
2022-07-29T09:49:13.610Z,1.30
2022-07-29T09:51:45.457Z,1.10
2022-07-29T09:54:26.847Z,1.00
2022-07-29T09:56:59.035Z,1.00
2022-07-29T09:59:30.961Z,1.20
2022-07-29T10:02:03.275Z,1.20
2022-07-29T10:04:45.223Z,1.20
2022-07-29T10:07:16.938Z,1.30
2022-07-29T10:09:56.839Z,1.30
2022-07-29T10:12:28.583Z,1.20
2022-07-29T10:15:00.545Z,1.40
2022-07-29T10:17:32.671Z,1.40
2022-07-29T10:20:08.269Z,1.30
2022-07-29T10:22:53.105Z,1.20
2022-07-29T10:25:26.440Z,1.50
2022-07-29T10:27:58.367Z,1.40
2022-07-29T10:30:30.331Z,1.20
2022-07-29T10:33:18.959Z,1.40
2022-07-29T10:36:04.239Z,1.50
2022-07-29T10:38:48.029Z,1.60
2022-07-29T10:41:58.673Z,1.30
2022-07-29T10:44:31.236Z,1.40
2022-07-29T10:47:03.779Z,1.20
2022-07-29T10:49:35.600Z,1.60
2022-07-29T10:52:09.083Z,1.70
2022-07-29T10:54:46.212Z,1.20
2022-07-29T10:57:53.859Z,1.50
2022-07-29T11:00:36.653Z,1.40
2022-07-29T11:03:10.832Z,1.50
2022-07-29T11:06:00.126Z,1.50
2022-07-29T11:08:31.981Z,1.70
2022-07-29T11:11:36.769Z,1.20
2022-07-29T11:14:10.413Z,1.50
2022-07-29T11:17:08.292Z,1.30
2022-07-29T11:19:46.788Z,1.60
2022-07-29T11:22:46.074Z,1.20
2022-07-29T11:25:50.251Z,1.40
2022-07-29T11:28:23.174Z,1.40
2022-07-29T11:30:57.810Z,1.40
2022-07-29T11:33:37.522Z,1.40
2022-07-29T11:36:28.229Z,1.50
2022-07-29T11:39:36.414Z,1.70
2022-07-29T11:42:44.597Z,1.70
2022-07-29T11:45:44.094Z,1.80
2022-07-29T11:48:28.887Z,1.80
2022-07-29T11:51:11.380Z,1.80
2022-07-29T11:53:52.526Z,1.50
2022-07-29T11:56:28.532Z,1.70
2022-07-29T11:59:08.438Z,1.50
2022-07-29T12:02:02.451Z,1.80
2022-07-29T12:04:53.774Z,1.50
2022-07-29T12:07:33.688Z,1.50
2022-07-29T12:10:11.491Z,1.30
2022-07-29T12:12:55.942Z,1.80
2022-07-29T12:15:45.816Z,1.40
2022-07-29T12:18:24.177Z,1.60
2022-07-29T12:21:04.783Z,1.70
2022-07-29T12:23:36.927Z,1.50
2022-07-29T12:26:10.898Z,1.70
2022-07-29T12:28:43.022Z,1.70
2022-07-29T12:31:42.739Z,1.30
2022-07-29T12:34:11.379Z,1.30
2022-07-29T12:36:44.754Z,1.50
2022-07-29T12:39:17.514Z,1.70
2022-07-29T12:41:49.497Z,1.60
2022-07-29T12:44:21.260Z,1.90
2022-07-29T12:47:06.436Z,1.60
2022-07-29T12:49:38.375Z,1.70
2022-07-29T12:52:30.943Z,1.50
2022-07-29T12:55:03.624Z,1.60
2022-07-29T12:57:46.949Z,1.60
2022-07-29T13:00:24.241Z,1.60
2022-07-29T13:03:01.219Z,1.60
2022-07-29T13:05:49.073Z,1.60
2022-07-29T13:08:22.275Z,1.70
2022-07-29T13:10:54.845Z,1.60
2022-07-29T13:13:26.541Z,1.60
2022-07-29T13:16:11.803Z,2.20
2022-07-29T13:18:43.503Z,1.60
2022-07-29T13:21:16.619Z,1.50
2022-07-29T13:23:50.905Z,1.80
2022-07-29T13:26:23.296Z,1.70
2022-07-29T13:28:55.747Z,1.40
2022-07-29T13:31:27.666Z,1.40
2022-07-29T13:33:59.759Z,1.50
2022-07-29T13:36:31.377Z,1.30
2022-07-29T13:39:03.762Z,1.70
2022-07-29T13:41:35.462Z,1.90
2022-07-29T13:44:07.147Z,1.30
2022-07-29T13:46:39.495Z,1.50
2022-07-29T13:49:12.446Z,1.50
2022-07-29T13:51:44.102Z,1.50
2022-07-29T13:54:15.686Z,1.90
2022-07-29T13:56:47.457Z,1.20
2022-07-29T13:59:19.084Z,1.70
2022-07-29T14:01:50.924Z,1.80
2022-07-29T14:04:22.642Z,2.00
2022-07-29T14:06:54.440Z,1.70
2022-07-29T14:09:26.226Z,1.50
2022-07-29T14:11:58.094Z,1.70
2022-07-29T14:14:32.675Z,1.20
2022-07-29T14:17:07.593Z,1.50
2022-07-29T14:19:39.958Z,1.70
2022-07-29T14:22:12.197Z,1.80
2022-07-29T14:24:44.298Z,1.60
2022-07-29T14:27:16.093Z,1.60
2022-07-29T14:29:47.818Z,1.70
2022-07-29T14:32:19.538Z,2.00
2022-07-29T14:34:51.276Z,1.60
2022-07-29T14:37:23.206Z,2.30
2022-07-29T14:39:55.632Z,1.50
2022-07-29T14:42:27.397Z,1.50
2022-07-29T14:44:58.964Z,1.80
2022-07-29T14:47:30.844Z,1.30
2022-07-29T14:50:02.474Z,1.80
2022-07-29T14:52:34.167Z,1.60
2022-07-29T14:55:16.535Z,1.90
2022-07-29T14:57:55.440Z,1.70
2022-07-29T15:00:33.344Z,1.60
2022-07-29T15:03:05.614Z,1.60
2022-07-29T15:05:37.765Z,1.70
2022-07-29T15:08:10.264Z,1.60
2022-07-29T15:10:41.877Z,1.60
2022-07-29T15:13:13.537Z,1.50
2022-07-29T15:15:45.542Z,1.50
2022-07-29T15:18:17.124Z,1.50
2022-07-29T15:23:27.681Z,5.40
2022-07-29T15:25:59.252Z,2.10
2022-07-29T15:28:31.017Z,1.60
2022-07-29T15:31:03.144Z,1.50
2022-07-29T15:33:34.873Z,1.80
2022-07-29T15:36:06.842Z,1.70
2022-07-29T15:38:40.500Z,1.70
2022-07-29T15:41:16.998Z,1.80
2022-07-29T15:43:48.913Z,1.50
2022-07-29T15:46:39.110Z,1.60
2022-07-29T15:49:11.236Z,1.30
2022-07-29T15:51:43.020Z,2.00
2022-07-29T15:54:14.701Z,1.60
2022-07-29T15:56:46.440Z,1.60
2022-07-29T15:59:22.298Z,1.60
2022-07-29T16:01:54.596Z,1.40
2022-07-29T16:04:26.790Z,2.20
2022-07-29T16:06:59.435Z,1.80
2022-07-29T16:09:31.504Z,1.60
2022-07-29T16:12:03.222Z,1.40
2022-07-29T16:14:42.396Z,1.80
2022-07-29T16:17:15.013Z,1.50
2022-07-29T16:19:47.213Z,1.60
2022-07-29T16:22:18.891Z,2.00
2022-07-29T16:24:50.710Z,2.00
2022-07-29T16:27:24.922Z,1.60
2022-07-29T16:29:56.798Z,1.90
2022-07-29T16:32:28.592Z,1.70
2022-07-29T16:35:02.213Z,2.00
2022-07-29T16:37:36.634Z,1.90
2022-07-29T16:40:12.796Z,2.00
2022-07-29T16:42:46.912Z,2.00
2022-07-29T16:45:21.133Z,1.60
2022-07-29T16:48:00.057Z,2.00
2022-07-29T16:50:33.064Z,1.70
2022-07-29T16:53:04.779Z,1.80
2022-07-29T16:55:36.545Z,1.80
2022-07-29T16:58:08.642Z,1.80
2022-07-29T17:00:40.736Z,2.00
2022-07-29T17:03:12.798Z,1.80
2022-07-29T17:05:50.401Z,1.90
2022-07-29T17:08:25.617Z,2.60
2022-07-29T17:10:57.935Z,1.90
2022-07-29T17:13:29.719Z,1.70
2022-07-29T17:16:01.416Z,1.80
2022-07-29T17:18:33.074Z,1.80
2022-07-29T17:21:05.097Z,2.20
2022-07-29T17:23:36.739Z,1.70
2022-07-29T17:26:08.539Z,2.00
2022-07-29T17:28:40.426Z,1.80
2022-07-29T17:31:12.637Z,1.90
2022-07-29T17:33:44.489Z,1.70
2022-07-29T17:36:24.826Z,1.60
2022-07-29T17:38:59.024Z,1.60
2022-07-29T17:41:30.804Z,1.80
2022-07-29T17:44:02.936Z,1.90
2022-07-29T17:46:34.679Z,2.10
2022-07-29T17:49:07.189Z,1.60
2022-07-29T17:51:39.021Z,1.90
2022-07-29T17:54:10.583Z,2.30
2022-07-29T17:56:42.778Z,2.30
2022-07-29T17:59:14.773Z,2.30
2022-07-29T18:01:46.504Z,2.70
2022-07-29T18:04:21.064Z,2.20
2022-07-29T18:06:53.954Z,2.10
2022-07-29T18:09:25.754Z,2.20
2022-07-29T18:11:57.452Z,2.00
2022-07-29T18:14:29.170Z,2.00
2022-07-29T18:17:01.267Z,1.90
2022-07-29T18:19:33.255Z,2.00
2022-07-29T18:22:05.594Z,1.90
2022-07-29T18:24:37.321Z,2.10
2022-07-29T18:27:09.370Z,2.30
2022-07-29T18:29:41.587Z,2.70
2022-07-29T18:32:13.278Z,2.10
2022-07-29T18:34:44.935Z,2.20
2022-07-29T18:37:17.359Z,2.30
2022-07-29T18:40:15.500Z,2.60
2022-07-29T18:42:47.671Z,2.10
2022-07-29T18:45:19.914Z,2.30
2022-07-29T18:47:52.200Z,2.40
2022-07-29T18:50:28.853Z,2.30
2022-07-29T18:53:03.470Z,2.60
2022-07-29T18:55:35.284Z,3.20
2022-07-29T18:58:07.293Z,2.60
2022-07-29T19:00:39.064Z,2.50
2022-07-29T19:03:10.943Z,2.60
2022-07-29T19:05:42.779Z,2.40
2022-07-29T19:08:14.601Z,2.60
2022-07-29T19:10:46.602Z,3.00
2022-07-29T19:13:18.388Z,2.50
2022-07-29T19:15:50.041Z,2.60
2022-07-29T19:18:21.818Z,2.50
2022-07-29T19:20:53.839Z,2.20
2022-07-29T19:23:25.803Z,3.10
2022-07-29T19:25:57.627Z,2.50
2022-07-29T19:28:29.539Z,2.40
2022-07-29T19:31:01.747Z,2.40
2022-07-29T19:33:33.583Z,2.00
2022-07-29T19:36:05.478Z,2.40
2022-07-29T19:38:38.337Z,2.20
2022-07-29T19:41:10.095Z,2.30
2022-07-29T19:43:51.327Z,2.30
2022-07-29T19:46:24.726Z,2.20
2022-07-29T19:48:56.744Z,2.20
2022-07-29T19:51:28.624Z,2.30
2022-07-29T19:54:00.478Z,2.40
2022-07-29T19:56:32.302Z,3.10
2022-07-29T19:59:04.056Z,2.60
2022-07-29T20:01:39.904Z,2.40
2022-07-29T20:04:11.664Z,2.50
2022-07-29T20:06:43.348Z,2.60
2022-07-29T20:09:17.069Z,3.00
2022-07-29T20:11:52.448Z,4.70
2022-07-29T20:14:24.311Z,7.60
2022-07-29T20:16:55.967Z,5.40
2022-07-29T20:19:27.739Z,4.30
2022-07-29T20:21:59.584Z,3.20
2022-07-29T20:24:31.377Z,3.00
2022-07-29T20:27:03.335Z,2.50
2022-07-29T20:29:45.192Z,2.40
2022-07-29T20:32:16.989Z,1.90
2022-07-29T20:34:48.684Z,2.00
2022-07-29T20:37:20.761Z,2.10
2022-07-29T20:39:53.118Z,2.70
2022-07-29T20:42:24.786Z,2.00
2022-07-29T20:44:58.021Z,1.80
2022-07-29T20:47:30.116Z,2.10
2022-07-29T20:50:01.937Z,2.40
2022-07-29T20:52:33.573Z,2.40
2022-07-29T20:55:05.853Z,2.50
2022-07-29T20:57:39.116Z,2.30
2022-07-29T21:00:16.345Z,2.20
2022-07-29T21:02:48.259Z,2.80
2022-07-29T21:05:20.312Z,2.50
2022-07-29T21:07:56.504Z,2.20
2022-07-29T21:10:29.967Z,2.30
2022-07-29T21:13:01.542Z,2.70
2022-07-29T21:15:33.767Z,2.70
2022-07-29T21:18:09.337Z,2.80
2022-07-29T21:20:41.156Z,3.00
2022-07-29T21:23:12.865Z,2.30
2022-07-29T21:25:44.627Z,2.60
2022-07-29T21:28:30.166Z,2.10
2022-07-29T21:31:03.438Z,2.20
2022-07-29T21:33:36.046Z,2.00
2022-07-29T21:36:45.395Z,2.30
2022-07-29T21:39:07.199Z,4.00
2022-07-29T21:41:39.106Z,2.60
2022-07-29T21:44:10.713Z,2.30
2022-07-29T21:46:42.589Z,2.90
2022-07-29T21:49:14.223Z,2.60
2022-07-29T21:51:46.110Z,2.70
2022-07-29T21:54:17.725Z,2.80
2022-07-29T21:56:51.322Z,2.50
2022-07-29T21:59:23.180Z,2.50
2022-07-29T22:01:55.787Z,2.70
2022-07-29T22:04:27.505Z,2.70
2022-07-29T22:07:00.143Z,3.10
2022-07-29T22:09:32.309Z,3.50
2022-07-29T22:12:04.097Z,2.80
2022-07-29T22:14:35.901Z,2.80
2022-07-29T22:17:07.635Z,2.40
2022-07-29T22:19:41.297Z,2.30
2022-07-29T22:22:13.019Z,2.00
2022-07-29T22:24:44.800Z,2.00
2022-07-29T22:27:16.569Z,2.50
2022-07-29T22:29:48.261Z,2.20
2022-07-29T22:32:19.892Z,2.10
2022-07-29T22:34:51.970Z,2.60
2022-07-29T22:37:23.933Z,2.00
2022-07-29T22:39:55.694Z,2.20
2022-07-29T22:42:27.552Z,2.40
2022-07-29T22:44:59.181Z,2.10
2022-07-29T22:47:45.887Z,2.10
2022-07-29T22:50:19.729Z,2.10
2022-07-29T22:52:53.170Z,2.20
2022-07-29T22:55:25.042Z,2.80
2022-07-29T22:57:56.856Z,2.50
2022-07-29T23:00:28.481Z,2.20
2022-07-29T23:03:00.349Z,2.60
2022-07-29T23:05:32.731Z,2.30
2022-07-29T23:08:04.617Z,2.40
2022-07-29T23:10:36.693Z,2.30
2022-07-29T23:13:08.316Z,2.00
2022-07-29T23:15:39.880Z,2.40
2022-07-29T23:18:12.003Z,2.20
2022-07-29T23:20:44.530Z,2.50
2022-07-29T23:23:16.271Z,2.30
2022-07-29T23:25:47.889Z,2.20
2022-07-29T23:28:19.566Z,1.90
2022-07-29T23:30:51.310Z,2.50
2022-07-29T23:33:23.037Z,1.90
2022-07-29T23:35:54.667Z,2.50
2022-07-29T23:38:26.287Z,1.90
2022-07-29T23:40:58.690Z,1.90
2022-07-29T23:43:30.574Z,2.20
2022-07-29T23:46:02.231Z,1.70
2022-07-29T23:48:34.002Z,1.70
2022-07-29T23:51:05.684Z,2.00
2022-07-29T23:53:53.468Z,1.70
2022-07-29T23:56:25.860Z,1.70
2022-07-29T23:58:57.533Z,1.70
